sensor_id;sensor_type;location;lat;lon;timestamp;pressure;altitude;pressure_sealevel;temperature;humidity
9110;BME280;4590;51.462;6.692;2023-07-24T00:00:24;100326.16;;;20.30;72.14
9110;BME280;4590;51.462;6.692;2023-07-24T00:02:49;100308.53;;;20.23;74.07
9110;BME280;4590;51.462;6.692;2023-07-24T00:05:15;100314.22;;;20.30;72.40
9110;BME280;4590;51.462;6.692;2023-07-24T00:07:40;100309.00;;;20.28;72.42
9110;BME280;4590;51.462;6.692;2023-07-24T00:10:06;100303.41;;;20.28;72.36
9110;BME280;4590;51.462;6.692;2023-07-24T00:12:31;100311.81;;;20.28;72.49
9110;BME280;4590;51.462;6.692;2023-07-24T00:14:57;100312.97;;;20.27;72.35
9110;BME280;4590;51.462;6.692;2023-07-24T00:17:22;100311.00;;;20.28;72.55
9110;BME280;4590;51.462;6.692;2023-07-24T00:19:48;100303.38;;;20.25;72.90
9110;BME280;4590;51.462;6.692;2023-07-24T00:22:13;100294.19;;;20.24;72.71
9110;BME280;4590;51.462;6.692;2023-07-24T00:24:38;100290.97;;;20.22;72.96
9110;BME280;4590;51.462;6.692;2023-07-24T00:27:04;100299.72;;;20.21;72.69
9110;BME280;4590;51.462;6.692;2023-07-24T00:29:29;100294.13;;;20.21;73.02
9110;BME280;4590;51.462;6.692;2023-07-24T00:31:54;100290.47;;;20.13;74.41
9110;BME280;4590;51.462;6.692;2023-07-24T00:34:19;100288.13;;;20.19;72.59
9110;BME280;4590;51.462;6.692;2023-07-24T00:36:45;100278.88;;;20.11;75.10
9110;BME280;4590;51.462;6.692;2023-07-24T00:39:10;100270.13;;;20.16;72.93
9110;BME280;4590;51.462;6.692;2023-07-24T00:41:35;100282.13;;;20.17;72.71
9110;BME280;4590;51.462;6.692;2023-07-24T00:44:00;100286.09;;;20.16;72.61
9110;BME280;4590;51.462;6.692;2023-07-24T00:46:26;100285.28;;;20.15;72.93
9110;BME280;4590;51.462;6.692;2023-07-24T00:48:52;100281.31;;;20.16;73.24
9110;BME280;4590;51.462;6.692;2023-07-24T00:51:19;100283.31;;;20.16;73.17
9110;BME280;4590;51.462;6.692;2023-07-24T00:53:44;100275.34;;;20.14;73.34
9110;BME280;4590;51.462;6.692;2023-07-24T00:56:11;100263.75;;;20.16;73.50
9110;BME280;4590;51.462;6.692;2023-07-24T00:58:37;100263.75;;;20.16;73.08
9110;BME280;4590;51.462;6.692;2023-07-24T01:01:03;100265.75;;;20.15;73.31
9110;BME280;4590;51.462;6.692;2023-07-24T01:03:33;100261.38;;;20.14;73.11
9110;BME280;4590;51.462;6.692;2023-07-24T01:06:01;100250.97;;;20.15;73.59
9110;BME280;4590;51.462;6.692;2023-07-24T01:08:26;100257.34;;;20.15;73.45
9110;BME280;4590;51.462;6.692;2023-07-24T01:10:51;100249.78;;;20.12;73.45
9110;BME280;4590;51.462;6.692;2023-07-24T01:13:21;100240.59;;;20.12;73.33
9110;BME280;4590;51.462;6.692;2023-07-24T01:18:17;100230.22;;;20.12;73.84
9110;BME280;4590;51.462;6.692;2023-07-24T01:20:55;100220.59;;;20.10;73.54
9110;BME280;4590;51.462;6.692;2023-07-24T01:23:43;100218.97;;;20.05;74.12
9110;BME280;4590;51.462;6.692;2023-07-24T01:26:10;100221.78;;;20.09;73.76
9110;BME280;4590;51.462;6.692;2023-07-24T01:28:36;100212.59;;;20.08;73.54
9110;BME280;4590;51.462;6.692;2023-07-24T01:31:01;100209.72;;;19.98;76.15
9110;BME280;4590;51.462;6.692;2023-07-24T01:33:26;100211.34;;;20.02;74.00
9110;BME280;4590;51.462;6.692;2023-07-24T01:35:55;100208.53;;;19.99;73.81
9110;BME280;4590;51.462;6.692;2023-07-24T01:38:24;100203.34;;;20.01;73.96
9110;BME280;4590;51.462;6.692;2023-07-24T01:40:50;100196.16;;;20.00;73.92
9110;BME280;4590;51.462;6.692;2023-07-24T01:43:16;100203.66;;;19.92;74.32
9110;BME280;4590;51.462;6.692;2023-07-24T01:45:42;100198.13;;;19.95;74.32
9110;BME280;4590;51.462;6.692;2023-07-24T01:48:07;100190.88;;;19.91;74.43
9110;BME280;4590;51.462;6.692;2023-07-24T01:50:32;100187.72;;;19.92;74.14
9110;BME280;4590;51.462;6.692;2023-07-24T01:52:58;100180.47;;;19.88;74.29
9110;BME280;4590;51.462;6.692;2023-07-24T01:55:23;100178.50;;;19.88;74.47
9110;BME280;4590;51.462;6.692;2023-07-24T01:57:49;100185.69;;;19.89;74.17
9110;BME280;4590;51.462;6.692;2023-07-24T02:00:14;100184.91;;;19.92;73.85
9110;BME280;4590;51.462;6.692;2023-07-24T02:02:39;100174.47;;;19.86;74.27
9110;BME280;4590;51.462;6.692;2023-07-24T02:05:05;100180.03;;;19.82;74.64
9110;BME280;4590;51.462;6.692;2023-07-24T02:07:30;100175.88;;;19.69;77.46
9110;BME280;4590;51.462;6.692;2023-07-24T02:09:56;100173.88;;;19.66;75.94
9110;BME280;4590;51.462;6.692;2023-07-24T02:12:22;100170.28;;;19.69;75.91
9110;BME280;4590;51.462;6.692;2023-07-24T02:14:47;100172.38;;;19.76;75.50
9110;BME280;4590;51.462;6.692;2023-07-24T02:17:17;100162.88;;;19.80;75.10
9110;BME280;4590;51.462;6.692;2023-07-24T02:19:42;100154.50;;;19.84;74.68
9110;BME280;4590;51.462;6.692;2023-07-24T02:22:07;100159.38;;;19.90;74.60
9110;BME280;4590;51.462;6.692;2023-07-24T02:24:33;100152.94;;;19.86;75.14
9110;BME280;4590;51.462;6.692;2023-07-24T02:26:58;100149.31;;;19.82;75.11
9110;BME280;4590;51.462;6.692;2023-07-24T02:29:23;100146.22;;;19.91;74.51
9110;BME280;4590;51.462;6.692;2023-07-24T02:31:50;100151.38;;;19.89;74.78
9110;BME280;4590;51.462;6.692;2023-07-24T02:34:15;100147.78;;;19.88;75.29
9110;BME280;4590;51.462;6.692;2023-07-24T02:36:40;100155.38;;;19.91;74.63
9110;BME280;4590;51.462;6.692;2023-07-24T02:39:07;100148.66;;;19.96;74.80
9110;BME280;4590;51.462;6.692;2023-07-24T02:41:32;100152.69;;;19.99;74.42
9110;BME280;4590;51.462;6.692;2023-07-24T02:43:57;100149.53;;;20.04;74.31
9110;BME280;4590;51.462;6.692;2023-07-24T02:46:23;100141.19;;;20.07;74.37
9110;BME280;4590;51.462;6.692;2023-07-24T02:48:49;100145.91;;;20.03;74.39
9110;BME280;4590;51.462;6.692;2023-07-24T02:51:14;100140.75;;;20.05;74.72
9110;BME280;4590;51.462;6.692;2023-07-24T02:53:40;100145.97;;;20.07;74.38
9110;BME280;4590;51.462;6.692;2023-07-24T02:56:05;100138.81;;;20.09;73.95
9110;BME280;4590;51.462;6.692;2023-07-24T02:58:30;100132.41;;;20.09;74.63
9110;BME280;4590;51.462;6.692;2023-07-24T03:01:02;100129.16;;;20.03;76.01
9110;BME280;4590;51.462;6.692;2023-07-24T03:03:27;100123.19;;;20.05;74.83
9110;BME280;4590;51.462;6.692;2023-07-24T03:05:52;100145.63;;;20.12;74.61
9110;BME280;4590;51.462;6.692;2023-07-24T03:08:17;100128.47;;;20.13;74.55
9110;BME280;4590;51.462;6.692;2023-07-24T03:10:43;100130.47;;;20.16;74.16
9110;BME280;4590;51.462;6.692;2023-07-24T03:13:08;100136.47;;;20.18;74.36
9110;BME280;4590;51.462;6.692;2023-07-24T03:15:33;100143.59;;;20.09;76.21
9110;BME280;4590;51.462;6.692;2023-07-24T03:17:58;100136.06;;;20.13;74.51
9110;BME280;4590;51.462;6.692;2023-07-24T03:20:24;100137.59;;;20.07;76.66
9110;BME280;4590;51.462;6.692;2023-07-24T03:22:49;100138.03;;;20.12;74.89
9110;BME280;4590;51.462;6.692;2023-07-24T03:25:14;100127.22;;;20.07;74.91
9110;BME280;4590;51.462;6.692;2023-07-24T03:27:40;100125.66;;;20.10;74.71
9110;BME280;4590;51.462;6.692;2023-07-24T03:30:06;100126.41;;;20.07;75.05
9110;BME280;4590;51.462;6.692;2023-07-24T03:32:31;100123.91;;;19.94;77.64
9110;BME280;4590;51.462;6.692;2023-07-24T03:34:56;100129.13;;;20.00;75.40
9110;BME280;4590;51.462;6.692;2023-07-24T03:37:21;100121.50;;;19.93;75.50
9110;BME280;4590;51.462;6.692;2023-07-24T03:39:47;100119.94;;;19.95;75.63
9110;BME280;4590;51.462;6.692;2023-07-24T03:42:25;100105.94;;;19.92;75.69
9110;BME280;4590;51.462;6.692;2023-07-24T03:44:51;100114.34;;;19.95;75.34
9110;BME280;4590;51.462;6.692;2023-07-24T03:47:16;100120.75;;;19.96;75.41
9110;BME280;4590;51.462;6.692;2023-07-24T03:49:41;100100.00;;;19.97;75.75
9110;BME280;4590;51.462;6.692;2023-07-24T03:52:07;100101.19;;;19.96;76.08
9110;BME280;4590;51.462;6.692;2023-07-24T03:54:32;100102.00;;;19.96;75.88
9110;BME280;4590;51.462;6.692;2023-07-24T03:56:57;100102.81;;;19.97;75.54
9110;BME280;4590;51.462;6.692;2023-07-24T03:59:22;100084.88;;;19.98;75.87
9110;BME280;4590;51.462;6.692;2023-07-24T04:01:48;100089.19;;;19.92;77.39
9110;BME280;4590;51.462;6.692;2023-07-24T04:04:13;100090.44;;;19.98;75.61
9110;BME280;4590;51.462;6.692;2023-07-24T04:06:38;100092.44;;;19.98;75.77
9110;BME280;4590;51.462;6.692;2023-07-24T04:09:03;100077.97;;;19.88;77.12
9110;BME280;4590;51.462;6.692;2023-07-24T04:11:29;100083.63;;;19.95;75.83
9110;BME280;4590;51.462;6.692;2023-07-24T04:13:54;100092.41;;;19.94;75.95
9110;BME280;4590;51.462;6.692;2023-07-24T04:16:19;100093.19;;;19.94;76.15
9110;BME280;4590;51.462;6.692;2023-07-24T04:18:45;100094.31;;;19.86;78.08
9110;BME280;4590;51.462;6.692;2023-07-24T04:21:10;100082.78;;;19.91;76.01
9110;BME280;4590;51.462;6.692;2023-07-24T04:23:35;100079.59;;;19.89;76.30
9110;BME280;4590;51.462;6.692;2023-07-24T04:26:00;100079.16;;;19.87;76.49
9110;BME280;4590;51.462;6.692;2023-07-24T04:28:26;100075.94;;;19.85;76.57
9110;BME280;4590;51.462;6.692;2023-07-24T04:30:51;100089.06;;;19.78;78.42
9110;BME280;4590;51.462;6.692;2023-07-24T04:33:16;100080.28;;;19.79;76.79
9110;BME280;4590;51.462;6.692;2023-07-24T04:35:42;100083.88;;;19.80;76.72
9110;BME280;4590;51.462;6.692;2023-07-24T04:38:08;100077.13;;;19.81;76.38
9110;BME280;4590;51.462;6.692;2023-07-24T04:40:33;100078.72;;;19.82;76.71
9110;BME280;4590;51.462;6.692;2023-07-24T04:42:58;100086.69;;;19.83;76.70
9110;BME280;4590;51.462;6.692;2023-07-24T04:45:23;100094.22;;;19.76;78.36
9110;BME280;4590;51.462;6.692;2023-07-24T04:47:49;100101.06;;;19.82;76.74
9110;BME280;4590;51.462;6.692;2023-07-24T04:50:14;100103.44;;;19.83;76.49
9110;BME280;4590;51.462;6.692;2023-07-24T04:52:39;100099.03;;;19.79;77.30
9110;BME280;4590;51.462;6.692;2023-07-24T04:55:05;100099.88;;;19.83;77.05
9110;BME280;4590;51.462;6.692;2023-07-24T04:57:30;100091.91;;;19.85;77.16
9110;BME280;4590;51.462;6.692;2023-07-24T04:59:56;100093.88;;;19.84;77.17
9110;BME280;4590;51.462;6.692;2023-07-24T05:02:21;100092.69;;;19.85;76.93
9110;BME280;4590;51.462;6.692;2023-07-24T05:04:46;100099.06;;;19.82;77.25
9110;BME280;4590;51.462;6.692;2023-07-24T05:07:12;100096.69;;;19.84;77.46
9110;BME280;4590;51.462;6.692;2023-07-24T05:09:37;100096.28;;;19.86;77.32
9110;BME280;4590;51.462;6.692;2023-07-24T05:12:02;100102.25;;;19.84;77.11
9110;BME280;4590;51.462;6.692;2023-07-24T05:14:28;100110.25;;;19.86;77.18
9110;BME280;4590;51.462;6.692;2023-07-24T05:16:53;100115.47;;;19.87;77.04
9110;BME280;4590;51.462;6.692;2023-07-24T05:19:18;100114.97;;;19.78;78.91
9110;BME280;4590;51.462;6.692;2023-07-24T05:21:43;100126.19;;;19.85;76.98
9110;BME280;4590;51.462;6.692;2023-07-24T05:24:09;100132.22;;;19.87;77.01
9110;BME280;4590;51.462;6.692;2023-07-24T05:26:34;100137.41;;;19.89;77.60
9110;BME280;4590;51.462;6.692;2023-07-24T05:28:59;100121.47;;;19.89;77.30
9110;BME280;4590;51.462;6.692;2023-07-24T05:31:24;100137.03;;;19.90;77.53
9110;BME280;4590;51.462;6.692;2023-07-24T05:33:50;100132.66;;;19.93;77.83
9110;BME280;4590;51.462;6.692;2023-07-24T05:36:15;100145.50;;;19.98;77.72
9110;BME280;4590;51.462;6.692;2023-07-24T05:38:40;100138.31;;;20.00;77.80
9110;BME280;4590;51.462;6.692;2023-07-24T05:41:05;100126.75;;;20.02;77.71
9110;BME280;4590;51.462;6.692;2023-07-24T05:43:31;100133.94;;;20.03;77.69
9110;BME280;4590;51.462;6.692;2023-07-24T05:45:57;100129.59;;;20.05;77.75
9110;BME280;4590;51.462;6.692;2023-07-24T05:48:24;100134.78;;;20.07;77.41
9110;BME280;4590;51.462;6.692;2023-07-24T05:50:49;100130.81;;;20.08;77.80
9110;BME280;4590;51.462;6.692;2023-07-24T05:53:15;100124.09;;;20.12;77.66
9110;BME280;4590;51.462;6.692;2023-07-24T05:55:40;100116.13;;;20.14;77.72
9110;BME280;4590;51.462;6.692;2023-07-24T05:58:06;100116.94;;;20.18;77.76
9110;BME280;4590;51.462;6.692;2023-07-24T06:00:32;100114.19;;;20.22;77.95
9110;BME280;4590;51.462;6.692;2023-07-24T06:02:57;100117.38;;;20.24;77.75
9110;BME280;4590;51.462;6.692;2023-07-24T06:05:22;100123.00;;;20.27;77.51
9110;BME280;4590;51.462;6.692;2023-07-24T06:10:16;100117.84;;;20.29;77.67
9110;BME280;4590;51.462;6.692;2023-07-24T06:12:42;100119.41;;;20.30;77.68
9110;BME280;4590;51.462;6.692;2023-07-24T06:15:07;100136.19;;;20.30;77.19
9110;BME280;4590;51.462;6.692;2023-07-24T06:17:33;100130.22;;;20.32;77.36
9110;BME280;4590;51.462;6.692;2023-07-24T06:19:58;100119.00;;;20.25;78.30
9110;BME280;4590;51.462;6.692;2023-07-24T06:22:23;100122.25;;;20.34;77.65
9110;BME280;4590;51.462;6.692;2023-07-24T06:24:49;100116.28;;;20.36;77.28
9110;BME280;4590;51.462;6.692;2023-07-24T06:27:15;100120.72;;;20.37;77.38
9110;BME280;4590;51.462;6.692;2023-07-24T06:29:40;100125.91;;;20.38;77.29
9110;BME280;4590;51.462;6.692;2023-07-24T06:32:06;100122.34;;;20.41;77.35
9110;BME280;4590;51.462;6.692;2023-07-24T06:34:31;100126.38;;;20.44;77.48
9110;BME280;4590;51.462;6.692;2023-07-24T06:36:56;100130.34;;;20.46;77.44
9110;BME280;4590;51.462;6.692;2023-07-24T06:39:22;100128.78;;;20.49;77.70
9110;BME280;4590;51.462;6.692;2023-07-24T06:41:47;100123.59;;;20.51;77.41
9110;BME280;4590;51.462;6.692;2023-07-24T06:44:12;100130.75;;;20.45;78.08
9110;BME280;4590;51.462;6.692;2023-07-24T06:46:37;100141.59;;;20.53;77.31
9110;BME280;4590;51.462;6.692;2023-07-24T06:49:03;100140.41;;;20.54;77.45
9110;BME280;4590;51.462;6.692;2023-07-24T06:51:28;100139.53;;;20.47;78.10
9110;BME280;4590;51.462;6.692;2023-07-24T06:53:53;100130.41;;;20.53;77.42
9110;BME280;4590;51.462;6.692;2023-07-24T06:56:18;100141.13;;;20.48;78.08
9110;BME280;4590;51.462;6.692;2023-07-24T06:58:44;100149.22;;;20.56;77.30
9110;BME280;4590;51.462;6.692;2023-07-24T07:01:09;100143.91;;;20.41;79.35
9110;BME280;4590;51.462;6.692;2023-07-24T07:03:34;100139.19;;;20.52;77.17
9110;BME280;4590;51.462;6.692;2023-07-24T07:06:00;100147.53;;;20.48;76.89
9110;BME280;4590;51.462;6.692;2023-07-24T07:08:26;100156.66;;;20.38;76.79
9110;BME280;4590;51.462;6.692;2023-07-24T07:10:58;100153.94;;;20.45;76.60
9110;BME280;4590;51.462;6.692;2023-07-24T07:13:23;100159.50;;;20.45;76.92
9110;BME280;4590;51.462;6.692;2023-07-24T07:15:48;100147.13;;;20.46;76.40
9110;BME280;4590;51.462;6.692;2023-07-24T07:18:14;100151.50;;;20.47;76.53
9110;BME280;4590;51.462;6.692;2023-07-24T07:20:47;100152.31;;;20.48;76.52
9110;BME280;4590;51.462;6.692;2023-07-24T07:23:13;100148.38;;;20.52;76.77
9110;BME280;4590;51.462;6.692;2023-07-24T07:25:38;100150.00;;;20.57;76.89
9110;BME280;4590;51.462;6.692;2023-07-24T07:28:03;100152.78;;;20.53;77.39
9110;BME280;4590;51.462;6.692;2023-07-24T07:30:29;100145.25;;;20.64;76.53
9110;BME280;4590;51.462;6.692;2023-07-24T07:32:54;100154.03;;;20.63;77.62
9110;BME280;4590;51.462;6.692;2023-07-24T07:35:19;100153.75;;;20.79;76.79
9110;BME280;4590;51.462;6.692;2023-07-24T07:37:44;100155.72;;;20.78;77.76
9110;BME280;4590;51.462;6.692;2023-07-24T07:40:10;100145.47;;;20.93;77.06
9110;BME280;4590;51.462;6.692;2023-07-24T07:42:35;100141.06;;;20.92;77.42
9110;BME280;4590;51.462;6.692;2023-07-24T07:45:00;100133.53;;;21.07;76.58
9110;BME280;4590;51.462;6.692;2023-07-24T07:47:26;100139.91;;;21.04;76.30
9110;BME280;4590;51.462;6.692;2023-07-24T07:49:51;100133.59;;;21.17;76.40
9110;BME280;4590;51.462;6.692;2023-07-24T07:52:16;100135.56;;;21.13;75.91
9110;BME280;4590;51.462;6.692;2023-07-24T07:54:48;100132.88;;;21.24;75.61
9110;BME280;4590;51.462;6.692;2023-07-24T07:57:14;100138.47;;;21.31;75.51
9110;BME280;4590;51.462;6.692;2023-07-24T07:59:39;100142.84;;;21.21;75.53
9110;BME280;4590;51.462;6.692;2023-07-24T08:02:04;100139.69;;;21.33;75.48
9110;BME280;4590;51.462;6.692;2023-07-24T08:04:29;100153.63;;;21.23;74.56
9110;BME280;4590;51.462;6.692;2023-07-24T08:06:55;100137.66;;;21.30;74.70
9110;BME280;4590;51.462;6.692;2023-07-24T08:09:20;100140.03;;;21.21;74.59
9110;BME280;4590;51.462;6.692;2023-07-24T08:11:47;100132.91;;;21.34;74.59
9110;BME280;4590;51.462;6.692;2023-07-24T08:14:12;100124.84;;;21.26;73.60
9110;BME280;4590;51.462;6.692;2023-07-24T08:16:37;100123.72;;;21.45;74.65
9110;BME280;4590;51.462;6.692;2023-07-24T08:19:02;100126.97;;;21.50;74.41
9110;BME280;4590;51.462;6.692;2023-07-24T08:21:28;100127.81;;;21.72;74.50
9110;BME280;4590;51.462;6.692;2023-07-24T08:23:53;100107.81;;;21.74;72.69
9110;BME280;4590;51.462;6.692;2023-07-24T08:26:18;100113.03;;;21.93;73.56
9110;BME280;4590;51.462;6.692;2023-07-24T08:28:43;100109.84;;;21.94;72.58
9110;BME280;4590;51.462;6.692;2023-07-24T08:31:09;100117.09;;;22.17;73.46
9110;BME280;4590;51.462;6.692;2023-07-24T08:33:34;100117.09;;;22.27;72.80
9110;BME280;4590;51.462;6.692;2023-07-24T08:36:04;100119.88;;;22.52;73.10
9110;BME280;4590;51.462;6.692;2023-07-24T08:38:30;100111.44;;;22.73;72.71
9110;BME280;4590;51.462;6.692;2023-07-24T08:41:09;100116.25;;;22.73;69.60
9110;BME280;4590;51.462;6.692;2023-07-24T08:43:36;100107.81;;;22.94;71.16
9110;BME280;4590;51.462;6.692;2023-07-24T08:46:03;100102.97;;;23.05;71.00
9110;BME280;4590;51.462;6.692;2023-07-24T08:48:30;100109.31;;;23.20;70.43
9110;BME280;4590;51.462;6.692;2023-07-24T08:50:56;100115.25;;;23.36;69.60
9110;BME280;4590;51.462;6.692;2023-07-24T08:53:23;100108.38;;;23.59;69.57
9110;BME280;4590;51.462;6.692;2023-07-24T08:55:52;100106.59;;;23.86;68.96
9110;BME280;4590;51.462;6.692;2023-07-24T08:58:17;100101.13;;;24.17;68.33
9110;BME280;4590;51.462;6.692;2023-07-24T09:00:43;100104.53;;;24.45;67.89
9110;BME280;4590;51.462;6.692;2023-07-24T09:03:08;100096.66;;;24.71;66.22
9110;BME280;4590;51.462;6.692;2023-07-24T09:05:33;100094.00;;;24.91;65.94
9110;BME280;4590;51.462;6.692;2023-07-24T09:07:59;100097.84;;;25.07;65.13
9110;BME280;4590;51.462;6.692;2023-07-24T09:10:25;100098.97;;;25.17;63.95
9110;BME280;4590;51.462;6.692;2023-07-24T09:12:50;100100.97;;;25.16;62.34
9110;BME280;4590;51.462;6.692;2023-07-24T09:15:16;100095.00;;;25.11;62.63
9110;BME280;4590;51.462;6.692;2023-07-24T09:17:51;100094.38;;;24.96;60.28
9110;BME280;4590;51.462;6.692;2023-07-24T09:20:18;100091.56;;;24.93;61.32
9110;BME280;4590;51.462;6.692;2023-07-24T09:22:50;100095.69;;;24.85;61.02
9110;BME280;4590;51.462;6.692;2023-07-24T09:25:16;100085.94;;;24.96;61.94
9110;BME280;4590;51.462;6.692;2023-07-24T09:27:41;100084.13;;;25.13;61.65
9110;BME280;4590;51.462;6.692;2023-07-24T09:30:16;100085.16;;;25.26;61.06
9110;BME280;4590;51.462;6.692;2023-07-24T09:32:42;100083.78;;;25.38;60.19
9110;BME280;4590;51.462;6.692;2023-07-24T09:35:17;100073.81;;;25.33;58.35
9110;BME280;4590;51.462;6.692;2023-07-24T09:37:46;100073.75;;;25.37;58.97
9110;BME280;4590;51.462;6.692;2023-07-24T09:40:13;100073.91;;;25.26;58.74
9110;BME280;4590;51.462;6.692;2023-07-24T09:42:39;100059.47;;;25.21;58.38
9110;BME280;4590;51.462;6.692;2023-07-24T09:45:05;100063.97;;;25.18;58.93
9110;BME280;4590;51.462;6.692;2023-07-24T09:47:31;100063.19;;;25.14;58.41
9110;BME280;4590;51.462;6.692;2023-07-24T09:49:56;100058.44;;;25.07;57.84
9110;BME280;4590;51.462;6.692;2023-07-24T09:52:23;100052.13;;;25.00;57.59
9110;BME280;4590;51.462;6.692;2023-07-24T09:57:21;100062.22;;;24.97;58.07
9110;BME280;4590;51.462;6.692;2023-07-24T09:59:48;100050.53;;;24.99;57.84
9110;BME280;4590;51.462;6.692;2023-07-24T10:02:13;100042.50;;;24.97;58.02
9110;BME280;4590;51.462;6.692;2023-07-24T10:04:39;100049.69;;;25.02;58.50
9110;BME280;4590;51.462;6.692;2023-07-24T10:07:06;100034.75;;;25.05;58.79
9110;BME280;4590;51.462;6.692;2023-07-24T10:09:33;100033.91;;;25.08;58.22
9110;BME280;4590;51.462;6.692;2023-07-24T10:11:58;100030.25;;;25.11;58.43
9110;BME280;4590;51.462;6.692;2023-07-24T10:14:24;100021.81;;;25.11;58.35
9110;BME280;4590;51.462;6.692;2023-07-24T10:16:50;100029.81;;;25.16;57.52
9110;BME280;4590;51.462;6.692;2023-07-24T10:19:20;100027.72;;;25.20;58.11
9110;BME280;4590;51.462;6.692;2023-07-24T10:21:49;100015.22;;;25.21;58.85
9110;BME280;4590;51.462;6.692;2023-07-24T10:24:15;100014.06;;;25.18;59.39
9110;BME280;4590;51.462;6.692;2023-07-24T10:26:41;100012.78;;;25.23;59.38
9110;BME280;4590;51.462;6.692;2023-07-24T10:29:06;100018.03;;;25.21;59.29
9110;BME280;4590;51.462;6.692;2023-07-24T10:31:32;100028.94;;;25.19;59.87
9110;BME280;4590;51.462;6.692;2023-07-24T10:34:05;100023.84;;;25.10;59.37
9110;BME280;4590;51.462;6.692;2023-07-24T10:36:33;100019.47;;;25.06;59.50
9110;BME280;4590;51.462;6.692;2023-07-24T10:38:59;100020.78;;;24.98;59.68
9110;BME280;4590;51.462;6.692;2023-07-24T10:41:36;100021.78;;;24.80;59.70
9110;BME280;4590;51.462;6.692;2023-07-24T10:44:02;100030.41;;;24.63;60.03
9110;BME280;4590;51.462;6.692;2023-07-24T10:46:38;100025.34;;;24.51;60.16
9110;BME280;4590;51.462;6.692;2023-07-24T10:49:03;100026.19;;;24.44;60.75
9110;BME280;4590;51.462;6.692;2023-07-24T10:51:29;100022.72;;;24.33;61.60
9110;BME280;4590;51.462;6.692;2023-07-24T10:53:57;100023.19;;;24.21;61.94
9110;BME280;4590;51.462;6.692;2023-07-24T10:56:22;100023.22;;;24.17;61.85
9110;BME280;4590;51.462;6.692;2023-07-24T10:58:48;100018.47;;;24.10;62.16
9110;BME280;4590;51.462;6.692;2023-07-24T11:01:13;100014.09;;;24.06;62.62
9110;BME280;4590;51.462;6.692;2023-07-24T11:03:41;100032.19;;;24.01;62.64
9110;BME280;4590;51.462;6.692;2023-07-24T11:06:19;100045.56;;;23.87;62.49
9110;BME280;4590;51.462;6.692;2023-07-24T11:08:57;100053.75;;;23.67;63.17
9110;BME280;4590;51.462;6.692;2023-07-24T11:11:34;100043.00;;;23.55;64.61
9110;BME280;4590;51.462;6.692;2023-07-24T11:14:03;100020.59;;;23.40;64.82
9110;BME280;4590;51.462;6.692;2023-07-24T11:16:29;100022.31;;;23.20;65.42
9110;BME280;4590;51.462;6.692;2023-07-24T11:18:58;100024.84;;;22.97;66.06
9110;BME280;4590;51.462;6.692;2023-07-24T11:21:23;100012.09;;;22.67;68.43
9110;BME280;4590;51.462;6.692;2023-07-24T11:23:51;100016.13;;;22.66;66.74
9110;BME280;4590;51.462;6.692;2023-07-24T11:26:20;100023.75;;;22.55;66.84
9110;BME280;4590;51.462;6.692;2023-07-24T11:28:46;100047.41;;;22.40;67.12
9110;BME280;4590;51.462;6.692;2023-07-24T11:31:11;100033.41;;;22.22;68.95
9110;BME280;4590;51.462;6.692;2023-07-24T11:33:37;100037.81;;;22.27;67.30
9110;BME280;4590;51.462;6.692;2023-07-24T11:36:03;100035.84;;;22.13;69.44
9110;BME280;4590;51.462;6.692;2023-07-24T11:38:28;100034.66;;;22.18;67.79
9110;BME280;4590;51.462;6.692;2023-07-24T11:40:54;100027.47;;;22.02;69.87
9110;BME280;4590;51.462;6.692;2023-07-24T11:43:22;100014.22;;;22.07;67.92
9110;BME280;4590;51.462;6.692;2023-07-24T11:45:49;100003.84;;;22.03;68.31
9110;BME280;4590;51.462;6.692;2023-07-24T11:48:18;100005.00;;;21.99;68.68
9110;BME280;4590;51.462;6.692;2023-07-24T11:50:45;100001.41;;;21.98;68.93
9110;BME280;4590;51.462;6.692;2023-07-24T11:53:28;99996.59;;;21.95;69.51
9110;BME280;4590;51.462;6.692;2023-07-24T11:55:55;99987.00;;;21.96;69.79
9110;BME280;4590;51.462;6.692;2023-07-24T11:58:21;99975.84;;;22.03;69.84
9110;BME280;4590;51.462;6.692;2023-07-24T12:00:47;99985.41;;;21.92;73.55
9110;BME280;4590;51.462;6.692;2023-07-24T12:03:14;99991.81;;;22.10;70.51
9110;BME280;4590;51.462;6.692;2023-07-24T12:05:43;99995.78;;;22.20;71.90
9110;BME280;4590;51.462;6.692;2023-07-24T12:08:11;100014.59;;;22.33;71.95
9110;BME280;4590;51.462;6.692;2023-07-24T12:10:39;100031.78;;;22.46;71.82
9110;BME280;4590;51.462;6.692;2023-07-24T12:13:05;100033.34;;;22.61;72.31
9110;BME280;4590;51.462;6.692;2023-07-24T12:15:31;100034.56;;;22.60;74.46
9110;BME280;4590;51.462;6.692;2023-07-24T12:17:58;100040.16;;;22.78;72.01
9110;BME280;4590;51.462;6.692;2023-07-24T12:20:23;100041.69;;;22.90;71.64
9110;BME280;4590;51.462;6.692;2023-07-24T12:22:48;100040.88;;;22.93;71.46
9110;BME280;4590;51.462;6.692;2023-07-24T12:25:14;100050.84;;;23.08;70.90
9110;BME280;4590;51.462;6.692;2023-07-24T12:27:40;100051.59;;;23.19;70.78
9110;BME280;4590;51.462;6.692;2023-07-24T12:30:07;100059.56;;;23.28;70.88
9110;BME280;4590;51.462;6.692;2023-07-24T12:32:32;100051.97;;;23.25;70.68
9110;BME280;4590;51.462;6.692;2023-07-24T12:34:57;100054.28;;;23.40;69.67
9110;BME280;4590;51.462;6.692;2023-07-24T12:37:22;100055.06;;;23.44;69.45
9110;BME280;4590;51.462;6.692;2023-07-24T12:39:48;100044.59;;;23.49;68.75
9110;BME280;4590;51.462;6.692;2023-07-24T12:42:14;100038.19;;;23.48;67.88
9110;BME280;4590;51.462;6.692;2023-07-24T12:44:41;100029.34;;;23.50;67.95
9110;BME280;4590;51.462;6.692;2023-07-24T12:47:06;100028.94;;;23.55;67.96
9110;BME280;4590;51.462;6.692;2023-07-24T12:49:32;100030.56;;;23.56;68.29
9110;BME280;4590;51.462;6.692;2023-07-24T12:51:57;100014.16;;;23.43;66.97
9110;BME280;4590;51.462;6.692;2023-07-24T12:54:22;100013.28;;;23.57;67.63
9110;BME280;4590;51.462;6.692;2023-07-24T12:56:48;100018.13;;;23.46;66.54
9110;BME280;4590;51.462;6.692;2023-07-24T12:59:14;100014.84;;;23.62;67.26
9110;BME280;4590;51.462;6.692;2023-07-24T13:01:39;99996.38;;;23.64;67.54
9110;BME280;4590;51.462;6.692;2023-07-24T13:04:04;99999.56;;;23.70;67.39
9110;BME280;4590;51.462;6.692;2023-07-24T13:06:29;99990.69;;;23.75;67.26
9110;BME280;4590;51.462;6.692;2023-07-24T13:08:55;99992.66;;;23.78;66.68
9110;BME280;4590;51.462;6.692;2023-07-24T13:11:20;99986.59;;;23.83;66.78
9110;BME280;4590;51.462;6.692;2023-07-24T13:13:46;99982.53;;;23.91;66.84